sensor_id;sensor_type;location;lat;lon;timestamp;temperature;humidity
17437;DHT22;73152;52.198;5.422;2024-01-16T00:00:07;19.20;41.60
17437;DHT22;73152;52.198;5.422;2024-01-16T00:02:36;19.20;41.60
17437;DHT22;73152;52.198;5.422;2024-01-16T00:05:06;19.20;41.60
17437;DHT22;73152;52.198;5.422;2024-01-16T00:07:38;19.20;41.50
17437;DHT22;73152;52.198;5.422;2024-01-16T00:10:08;19.20;41.40
17437;DHT22;73152;52.198;5.422;2024-01-16T00:12:41;19.20;41.50
17437;DHT22;73152;52.198;5.422;2024-01-16T00:15:10;19.20;41.60
17437;DHT22;73152;52.198;5.422;2024-01-16T00:17:40;19.20;41.60
17437;DHT22;73152;52.198;5.422;2024-01-16T00:20:09;19.20;41.60
17437;DHT22;73152;52.198;5.422;2024-01-16T00:22:39;19.20;41.60
17437;DHT22;73152;52.198;5.422;2024-01-16T00:25:08;19.20;41.60
17437;DHT22;73152;52.198;5.422;2024-01-16T00:27:40;19.20;41.60
17437;DHT22;73152;52.198;5.422;2024-01-16T00:30:10;19.20;41.60
17437;DHT22;73152;52.198;5.422;2024-01-16T00:32:40;19.10;41.70
17437;DHT22;73152;52.198;5.422;2024-01-16T00:35:09;19.20;41.70
17437;DHT22;73152;52.198;5.422;2024-01-16T00:37:38;19.20;41.60
17437;DHT22;73152;52.198;5.422;2024-01-16T00:40:08;19.20;41.50
17437;DHT22;73152;52.198;5.422;2024-01-16T00:42:39;19.20;41.60
17437;DHT22;73152;52.198;5.422;2024-01-16T00:45:08;19.20;41.60
17437;DHT22;73152;52.198;5.422;2024-01-16T00:47:37;19.20;41.70
17437;DHT22;73152;52.198;5.422;2024-01-16T00:50:07;19.20;41.50
17437;DHT22;73152;52.198;5.422;2024-01-16T00:52:36;19.20;41.60
17437;DHT22;73152;52.198;5.422;2024-01-16T00:55:06;19.20;41.60
17437;DHT22;73152;52.198;5.422;2024-01-16T00:57:35;19.20;41.60
17437;DHT22;73152;52.198;5.422;2024-01-16T01:00:07;19.20;41.60
17437;DHT22;73152;52.198;5.422;2024-01-16T01:02:38;19.20;41.70
17437;DHT22;73152;52.198;5.422;2024-01-16T01:05:07;19.20;41.70
17437;DHT22;73152;52.198;5.422;2024-01-16T01:07:36;19.10;41.60
17437;DHT22;73152;52.198;5.422;2024-01-16T01:10:06;19.10;41.70
17437;DHT22;73152;52.198;5.422;2024-01-16T01:12:35;19.10;41.70
17437;DHT22;73152;52.198;5.422;2024-01-16T01:15:07;19.20;41.70
17437;DHT22;73152;52.198;5.422;2024-01-16T01:17:37;19.10;41.70
17437;DHT22;73152;52.198;5.422;2024-01-16T01:20:08;19.20;41.70
17437;DHT22;73152;52.198;5.422;2024-01-16T01:22:37;19.10;41.70
17437;DHT22;73152;52.198;5.422;2024-01-16T01:25:08;19.20;41.70
17437;DHT22;73152;52.198;5.422;2024-01-16T01:27:37;19.10;41.70
17437;DHT22;73152;52.198;5.422;2024-01-16T01:30:10;19.10;41.70
17437;DHT22;73152;52.198;5.422;2024-01-16T01:32:39;19.10;41.70
17437;DHT22;73152;52.198;5.422;2024-01-16T01:35:09;19.10;41.70
17437;DHT22;73152;52.198;5.422;2024-01-16T01:37:40;19.10;41.70
17437;DHT22;73152;52.198;5.422;2024-01-16T01:40:09;19.10;41.70
17437;DHT22;73152;52.198;5.422;2024-01-16T01:42:41;19.10;41.70
17437;DHT22;73152;52.198;5.422;2024-01-16T01:45:13;19.10;41.70
17437;DHT22;73152;52.198;5.422;2024-01-16T01:47:42;19.10;41.60
17437;DHT22;73152;52.198;5.422;2024-01-16T01:50:13;19.10;40.40
17437;DHT22;73152;52.198;5.422;2024-01-16T01:52:42;19.20;40.50
17437;DHT22;73152;52.198;5.422;2024-01-16T01:55:13;19.10;40.80
17437;DHT22;73152;52.198;5.422;2024-01-16T01:57:42;19.10;40.10
17437;DHT22;73152;52.198;5.422;2024-01-16T02:00:14;19.10;40.60
17437;DHT22;73152;52.198;5.422;2024-01-16T02:02:46;19.10;40.80
17437;DHT22;73152;52.198;5.422;2024-01-16T02:05:15;19.10;40.80
17437;DHT22;73152;52.198;5.422;2024-01-16T02:07:44;19.10;41.10
17437;DHT22;73152;52.198;5.422;2024-01-16T02:10:13;19.10;40.90
17437;DHT22;73152;52.198;5.422;2024-01-16T02:12:42;19.10;40.90
17437;DHT22;73152;52.198;5.422;2024-01-16T02:15:11;19.10;41.10
17437;DHT22;73152;52.198;5.422;2024-01-16T02:17:42;19.10;40.90
17437;DHT22;73152;52.198;5.422;2024-01-16T02:20:11;19.10;40.90
17437;DHT22;73152;52.198;5.422;2024-01-16T02:22:45;19.10;41.20
17437;DHT22;73152;52.198;5.422;2024-01-16T02:25:19;19.10;41.50
17437;DHT22;73152;52.198;5.422;2024-01-16T02:27:48;19.10;41.60
17437;DHT22;73152;52.198;5.422;2024-01-16T02:30:19;19.00;41.60
17437;DHT22;73152;52.198;5.422;2024-01-16T02:32:48;19.10;41.70
17437;DHT22;73152;52.198;5.422;2024-01-16T02:35:17;19.10;41.50
17437;DHT22;73152;52.198;5.422;2024-01-16T02:37:46;19.10;41.60
17437;DHT22;73152;52.198;5.422;2024-01-16T02:40:14;19.10;41.50
17437;DHT22;73152;52.198;5.422;2024-01-16T02:42:46;19.10;41.60
17437;DHT22;73152;52.198;5.422;2024-01-16T02:45:15;19.10;41.50
17437;DHT22;73152;52.198;5.422;2024-01-16T02:47:44;19.10;41.20
17437;DHT22;73152;52.198;5.422;2024-01-16T02:50:13;19.10;41.60
17437;DHT22;73152;52.198;5.422;2024-01-16T02:52:41;19.00;41.50
17437;DHT22;73152;52.198;5.422;2024-01-16T02:55:10;19.10;41.50
17437;DHT22;73152;52.198;5.422;2024-01-16T02:57:41;19.10;41.10
17437;DHT22;73152;52.198;5.422;2024-01-16T03:00:11;19.10;41.40
17437;DHT22;73152;52.198;5.422;2024-01-16T03:02:41;19.10;41.40
17437;DHT22;73152;52.198;5.422;2024-01-16T03:05:10;19.10;41.60
17437;DHT22;73152;52.198;5.422;2024-01-16T03:07:39;19.10;41.40
17437;DHT22;73152;52.198;5.422;2024-01-16T03:10:08;19.10;41.50
17437;DHT22;73152;52.198;5.422;2024-01-16T03:12:37;19.00;41.60
17437;DHT22;73152;52.198;5.422;2024-01-16T03:15:09;19.00;41.60
17437;DHT22;73152;52.198;5.422;2024-01-16T03:17:38;19.10;40.90
17437;DHT22;73152;52.198;5.422;2024-01-16T03:20:08;19.10;40.80
17437;DHT22;73152;52.198;5.422;2024-01-16T03:22:37;19.10;41.20
17437;DHT22;73152;52.198;5.422;2024-01-16T03:25:08;19.10;41.10
17437;DHT22;73152;52.198;5.422;2024-01-16T03:27:37;19.10;41.30
17437;DHT22;73152;52.198;5.422;2024-01-16T03:30:10;19.10;41.10
17437;DHT22;73152;52.198;5.422;2024-01-16T03:32:39;19.10;40.80
17437;DHT22;73152;52.198;5.422;2024-01-16T03:35:08;19.00;41.50
17437;DHT22;73152;52.198;5.422;2024-01-16T03:37:38;19.00;41.40
17437;DHT22;73152;52.198;5.422;2024-01-16T03:40:08;19.10;40.90
17437;DHT22;73152;52.198;5.422;2024-01-16T03:42:37;19.00;41.40
17437;DHT22;73152;52.198;5.422;2024-01-16T03:45:10;19.00;41.50
17437;DHT22;73152;52.198;5.422;2024-01-16T03:47:39;19.00;41.60
17437;DHT22;73152;52.198;5.422;2024-01-16T03:50:09;19.00;41.70
17437;DHT22;73152;52.198;5.422;2024-01-16T03:52:38;19.00;41.70
17437;DHT22;73152;52.198;5.422;2024-01-16T03:55:07;19.00;41.60
17437;DHT22;73152;52.198;5.422;2024-01-16T03:57:36;19.00;41.70
17437;DHT22;73152;52.198;5.422;2024-01-16T04:00:10;19.00;41.40
17437;DHT22;73152;52.198;5.422;2024-01-16T04:02:40;19.00;40.80
17437;DHT22;73152;52.198;5.422;2024-01-16T04:05:09;19.10;41.50
17437;DHT22;73152;52.198;5.422;2024-01-16T04:07:38;19.00;41.40
17437;DHT22;73152;52.198;5.422;2024-01-16T04:10:08;19.00;41.30
17437;DHT22;73152;52.198;5.422;2024-01-16T04:12:37;19.00;41.10
17437;DHT22;73152;52.198;5.422;2024-01-16T04:15:09;19.10;41.40
17437;DHT22;73152;52.198;5.422;2024-01-16T04:17:38;19.00;41.40
17437;DHT22;73152;52.198;5.422;2024-01-16T04:20:08;19.00;41.20
17437;DHT22;73152;52.198;5.422;2024-01-16T04:22:37;19.00;41.40
17437;DHT22;73152;52.198;5.422;2024-01-16T04:25:06;19.00;41.40
17437;DHT22;73152;52.198;5.422;2024-01-16T04:27:35;19.00;41.60
17437;DHT22;73152;52.198;5.422;2024-01-16T04:30:06;19.00;41.30
17437;DHT22;73152;52.198;5.422;2024-01-16T04:32:38;19.00;41.40
17437;DHT22;73152;52.198;5.422;2024-01-16T04:35:07;19.00;41.20
17437;DHT22;73152;52.198;5.422;2024-01-16T04:37:36;19.00;41.10
17437;DHT22;73152;52.198;5.422;2024-01-16T04:40:06;19.00;41.50
17437;DHT22;73152;52.198;5.422;2024-01-16T04:42:35;19.00;41.20
17437;DHT22;73152;52.198;5.422;2024-01-16T04:45:05;19.00;41.40
17437;DHT22;73152;52.198;5.422;2024-01-16T04:47:37;19.00;41.50
17437;DHT22;73152;52.198;5.422;2024-01-16T04:50:07;19.00;41.10
17437;DHT22;73152;52.198;5.422;2024-01-16T04:52:36;19.00;40.70
17437;DHT22;73152;52.198;5.422;2024-01-16T04:55:06;19.00;41.40
17437;DHT22;73152;52.198;5.422;2024-01-16T04:57:35;19.00;41.20
17437;DHT22;73152;52.198;5.422;2024-01-16T05:00:06;19.00;41.40
17437;DHT22;73152;52.198;5.422;2024-01-16T05:02:38;19.00;41.60
17437;DHT22;73152;52.198;5.422;2024-01-16T05:05:08;19.00;41.60
17437;DHT22;73152;52.198;5.422;2024-01-16T05:07:37;19.00;41.70
17437;DHT22;73152;52.198;5.422;2024-01-16T05:10:09;19.00;41.60
17437;DHT22;73152;52.198;5.422;2024-01-16T05:12:38;19.00;41.60
17437;DHT22;73152;52.198;5.422;2024-01-16T05:15:11;19.00;41.60
17437;DHT22;73152;52.198;5.422;2024-01-16T05:17:40;19.00;41.70
17437;DHT22;73152;52.198;5.422;2024-01-16T05:20:09;19.00;41.70
17437;DHT22;73152;52.198;5.422;2024-01-16T05:22:39;19.00;41.70
17437;DHT22;73152;52.198;5.422;2024-01-16T05:25:08;19.00;41.70
17437;DHT22;73152;52.198;5.422;2024-01-16T05:27:37;19.00;41.70
17437;DHT22;73152;52.198;5.422;2024-01-16T05:30:09;19.00;41.30
17437;DHT22;73152;52.198;5.422;2024-01-16T05:32:38;19.00;41.10
17437;DHT22;73152;52.198;5.422;2024-01-16T05:35:08;19.00;41.40
17437;DHT22;73152;52.198;5.422;2024-01-16T05:37:37;19.00;41.50
17437;DHT22;73152;52.198;5.422;2024-01-16T05:40:08;19.00;41.60
17437;DHT22;73152;52.198;5.422;2024-01-16T05:42:37;19.00;41.60
17437;DHT22;73152;52.198;5.422;2024-01-16T05:45:09;19.00;41.60
17437;DHT22;73152;52.198;5.422;2024-01-16T05:47:39;19.00;41.70
17437;DHT22;73152;52.198;5.422;2024-01-16T05:50:08;19.00;41.70
17437;DHT22;73152;52.198;5.422;2024-01-16T05:52:37;19.00;41.80
17437;DHT22;73152;52.198;5.422;2024-01-16T05:55:07;19.00;41.50
17437;DHT22;73152;52.198;5.422;2024-01-16T05:57:36;19.00;41.40
17437;DHT22;73152;52.198;5.422;2024-01-16T06:00:09;19.00;41.50
17437;DHT22;73152;52.198;5.422;2024-01-16T06:02:39;19.00;41.60
17437;DHT22;73152;52.198;5.422;2024-01-16T06:05:08;19.00;41.50
17437;DHT22;73152;52.198;5.422;2024-01-16T06:07:37;19.00;41.40
17437;DHT22;73152;52.198;5.422;2024-01-16T06:10:07;19.00;41.20
17437;DHT22;73152;52.198;5.422;2024-01-16T06:12:36;19.00;41.50
17437;DHT22;73152;52.198;5.422;2024-01-16T06:15:09;19.00;41.20
17437;DHT22;73152;52.198;5.422;2024-01-16T06:17:39;19.00;41.10
17437;DHT22;73152;52.198;5.422;2024-01-16T06:20:08;19.00;41.30
17437;DHT22;73152;52.198;5.422;2024-01-16T06:22:38;19.00;41.00
17437;DHT22;73152;52.198;5.422;2024-01-16T06:25:07;19.00;40.90
17437;DHT22;73152;52.198;5.422;2024-01-16T06:27:36;18.90;41.50
17437;DHT22;73152;52.198;5.422;2024-01-16T06:30:10;18.90;41.50
17437;DHT22;73152;52.198;5.422;2024-01-16T06:32:40;18.90;41.30
17437;DHT22;73152;52.198;5.422;2024-01-16T06:35:09;18.90;41.60
17437;DHT22;73152;52.198;5.422;2024-01-16T06:37:37;18.90;41.20
17437;DHT22;73152;52.198;5.422;2024-01-16T06:40:07;18.90;40.80
17437;DHT22;73152;52.198;5.422;2024-01-16T06:42:37;19.00;40.30
17437;DHT22;73152;52.198;5.422;2024-01-16T06:45:10;19.00;40.60
17437;DHT22;73152;52.198;5.422;2024-01-16T06:47:40;18.90;40.90
17437;DHT22;73152;52.198;5.422;2024-01-16T06:50:09;18.90;41.30
17437;DHT22;73152;52.198;5.422;2024-01-16T06:52:38;18.90;40.30
17437;DHT22;73152;52.198;5.422;2024-01-16T06:55:07;18.90;40.40
17437;DHT22;73152;52.198;5.422;2024-01-16T06:57:36;18.90;40.70
17437;DHT22;73152;52.198;5.422;2024-01-16T07:00:09;18.90;40.00
17437;DHT22;73152;52.198;5.422;2024-01-16T07:02:40;18.90;41.10
17437;DHT22;73152;52.198;5.422;2024-01-16T07:05:09;18.80;41.10
17437;DHT22;73152;52.198;5.422;2024-01-16T07:07:38;18.90;41.20
17437;DHT22;73152;52.198;5.422;2024-01-16T07:10:08;18.80;40.80
17437;DHT22;73152;52.198;5.422;2024-01-16T07:12:43;18.80;40.70
17437;DHT22;73152;52.198;5.422;2024-01-16T07:15:15;18.90;40.00
17437;DHT22;73152;52.198;5.422;2024-01-16T07:17:44;18.80;41.00
17437;DHT22;73152;52.198;5.422;2024-01-16T07:20:13;18.80;40.90
17437;DHT22;73152;52.198;5.422;2024-01-16T07:22:42;18.80;40.60
17437;DHT22;73152;52.198;5.422;2024-01-16T07:25:11;18.90;40.30
17437;DHT22;73152;52.198;5.422;2024-01-16T07:27:40;18.80;40.80
17437;DHT22;73152;52.198;5.422;2024-01-16T07:30:15;18.80;41.40
17437;DHT22;73152;52.198;5.422;2024-01-16T07:32:44;18.80;40.80
17437;DHT22;73152;52.198;5.422;2024-01-16T07:35:13;18.80;41.10
17437;DHT22;73152;52.198;5.422;2024-01-16T07:37:42;18.80;41.40
17437;DHT22;73152;52.198;5.422;2024-01-16T07:40:11;18.80;41.50
17437;DHT22;73152;52.198;5.422;2024-01-16T07:42:42;18.80;41.30
17437;DHT22;73152;52.198;5.422;2024-01-16T07:45:11;18.80;41.60
17437;DHT22;73152;52.198;5.422;2024-01-16T07:47:43;18.80;41.50
17437;DHT22;73152;52.198;5.422;2024-01-16T07:50:13;18.80;41.60
17437;DHT22;73152;52.198;5.422;2024-01-16T07:52:41;18.80;41.60
17437;DHT22;73152;52.198;5.422;2024-01-16T07:55:10;18.80;41.60
17437;DHT22;73152;52.198;5.422;2024-01-16T07:57:39;18.80;41.70
17437;DHT22;73152;52.198;5.422;2024-01-16T08:00:09;18.80;41.70
17437;DHT22;73152;52.198;5.422;2024-01-16T08:02:41;18.80;41.70
17437;DHT22;73152;52.198;5.422;2024-01-16T08:05:10;18.80;41.60
17437;DHT22;73152;52.198;5.422;2024-01-16T08:07:39;18.80;41.70
17437;DHT22;73152;52.198;5.422;2024-01-16T08:10:10;18.80;41.70
17437;DHT22;73152;52.198;5.422;2024-01-16T08:12:40;18.80;41.60
17437;DHT22;73152;52.198;5.422;2024-01-16T08:15:09;18.80;41.70
17437;DHT22;73152;52.198;5.422;2024-01-16T08:17:38;18.90;41.50
17437;DHT22;73152;52.198;5.422;2024-01-16T08:20:10;18.80;41.60
17437;DHT22;73152;52.198;5.422;2024-01-16T08:22:40;18.90;41.50
17437;DHT22;73152;52.198;5.422;2024-01-16T08:25:09;18.80;41.50
17437;DHT22;73152;52.198;5.422;2024-01-16T08:27:38;18.80;41.60
17437;DHT22;73152;52.198;5.422;2024-01-16T08:30:08;18.80;41.50
17437;DHT22;73152;52.198;5.422;2024-01-16T08:32:38;18.80;41.50
17437;DHT22;73152;52.198;5.422;2024-01-16T08:35:10;18.90;41.50
17437;DHT22;73152;52.198;5.422;2024-01-16T08:37:38;18.80;41.40
17437;DHT22;73152;52.198;5.422;2024-01-16T08:40:08;18.90;41.40
17437;DHT22;73152;52.198;5.422;2024-01-16T08:42:40;18.90;41.40
17437;DHT22;73152;52.198;5.422;2024-01-16T08:45:09;18.90;41.40
17437;DHT22;73152;52.198;5.422;2024-01-16T08:47:38;18.90;41.30
17437;DHT22;73152;52.198;5.422;2024-01-16T08:50:10;18.90;41.20
17437;DHT22;73152;52.198;5.422;2024-01-16T08:52:40;18.90;41.20
17437;DHT22;73152;52.198;5.422;2024-01-16T08:55:09;18.90;41.20
17437;DHT22;73152;52.198;5.422;2024-01-16T08:57:38;18.90;41.10
17437;DHT22;73152;52.198;5.422;2024-01-16T09:00:08;18.90;41.00
17437;DHT22;73152;52.198;5.422;2024-01-16T09:02:38;19.00;40.90
17437;DHT22;73152;52.198;5.422;2024-01-16T09:05:10;19.00;40.90
17437;DHT22;73152;52.198;5.422;2024-01-16T09:07:40;19.00;40.80
17437;DHT22;73152;52.198;5.422;2024-01-16T09:10:09;19.00;40.80
17437;DHT22;73152;52.198;5.422;2024-01-16T09:12:38;19.00;40.70
17437;DHT22;73152;52.198;5.422;2024-01-16T09:15:09;19.00;40.60
17437;DHT22;73152;52.198;5.422;2024-01-16T09:17:39;19.00;40.50
17437;DHT22;73152;52.198;5.422;2024-01-16T09:20:11;19.00;40.20
17437;DHT22;73152;52.198;5.422;2024-01-16T09:22:40;19.00;40.50
17437;DHT22;73152;52.198;5.422;2024-01-16T09:25:09;19.00;40.00
17437;DHT22;73152;52.198;5.422;2024-01-16T09:27:38;19.10;39.80
17437;DHT22;73152;52.198;5.422;2024-01-16T09:30:08;19.00;40.20
17437;DHT22;73152;52.198;5.422;2024-01-16T09:32:38;19.00;40.40
17437;DHT22;73152;52.198;5.422;2024-01-16T09:35:11;19.10;38.90
17437;DHT22;73152;52.198;5.422;2024-01-16T09:37:39;19.10;39.60
17437;DHT22;73152;52.198;5.422;2024-01-16T09:40:09;19.00;40.00
17437;DHT22;73152;52.198;5.422;2024-01-16T09:42:39;19.10;39.90
17437;DHT22;73152;52.198;5.422;2024-01-16T09:45:09;19.10;39.20
17437;DHT22;73152;52.198;5.422;2024-01-16T09:47:39;19.10;40.00
17437;DHT22;73152;52.198;5.422;2024-01-16T09:50:11;19.10;39.20
17437;DHT22;73152;52.198;5.422;2024-01-16T09:52:43;19.10;40.00
17437;DHT22;73152;52.198;5.422;2024-01-16T09:55:12;19.10;39.40
17437;DHT22;73152;52.198;5.422;2024-01-16T09:57:41;19.10;39.90
17437;DHT22;73152;52.198;5.422;2024-01-16T10:00:15;19.20;38.90
17437;DHT22;73152;52.198;5.422;2024-01-16T10:02:45;19.10;39.70
17437;DHT22;73152;52.198;5.422;2024-01-16T10:05:17;19.10;39.90
17437;DHT22;73152;52.198;5.422;2024-01-16T10:07:46;19.10;39.80
17437;DHT22;73152;52.198;5.422;2024-01-16T10:10:17;19.10;39.60
17437;DHT22;73152;52.198;5.422;2024-01-16T10:12:49;19.20;39.10
17437;DHT22;73152;52.198;5.422;2024-01-16T10:15:19;19.20;38.90
17437;DHT22;73152;52.198;5.422;2024-01-16T10:17:50;19.20;38.90
17437;DHT22;73152;52.198;5.422;2024-01-16T10:20:32;19.30;38.30
17437;DHT22;73152;52.198;5.422;2024-01-16T10:23:04;19.30;38.80
17437;DHT22;73152;52.198;5.422;2024-01-16T10:25:33;19.20;39.20
17437;DHT22;73152;52.198;5.422;2024-01-16T10:28:04;19.20;39.30
17437;DHT22;73152;52.198;5.422;2024-01-16T10:30:37;19.30;38.50
17437;DHT22;73152;52.198;5.422;2024-01-16T10:33:13;19.30;39.10
17437;DHT22;73152;52.198;5.422;2024-01-16T10:35:45;19.30;38.80
17437;DHT22;73152;52.198;5.422;2024-01-16T10:38:20;19.40;38.40
17437;DHT22;73152;52.198;5.422;2024-01-16T10:41:05;19.30;38.70
17437;DHT22;73152;52.198;5.422;2024-01-16T10:43:35;19.40;37.60
17437;DHT22;73152;52.198;5.422;2024-01-16T10:46:09;19.40;37.70
17437;DHT22;73152;52.198;5.422;2024-01-16T10:48:41;19.40;37.90
17437;DHT22;73152;52.198;5.422;2024-01-16T10:51:15;19.30;38.40
17437;DHT22;73152;52.198;5.422;2024-01-16T10:53:44;19.30;38.90
17437;DHT22;73152;52.198;5.422;2024-01-16T10:56:17;19.30;38.90
17437;DHT22;73152;52.198;5.422;2024-01-16T10:58:54;19.30;39.00
17437;DHT22;73152;52.198;5.422;2024-01-16T11:01:34;19.30;38.30
17437;DHT22;73152;52.198;5.422;2024-01-16T11:04:05;19.40;38.50
17437;DHT22;73152;52.198;5.422;2024-01-16T11:06:39;19.40;38.50
17437;DHT22;73152;52.198;5.422;2024-01-16T11:09:09;19.40;38.80
17437;DHT22;73152;52.198;5.422;2024-01-16T11:11:42;19.30;38.40
17437;DHT22;73152;52.198;5.422;2024-01-16T11:14:13;19.30;39.10
17437;DHT22;73152;52.198;5.422;2024-01-16T11:16:46;19.30;38.90
17437;DHT22;73152;52.198;5.422;2024-01-16T11:19:18;19.40;37.80
17437;DHT22;73152;52.198;5.422;2024-01-16T11:21:51;19.40;38.60
17437;DHT22;73152;52.198;5.422;2024-01-16T11:24:21;19.30;38.80
17437;DHT22;73152;52.198;5.422;2024-01-16T11:26:50;19.40;37.80
17437;DHT22;73152;52.198;5.422;2024-01-16T11:29:34;19.40;37.60
17437;DHT22;73152;52.198;5.422;2024-01-16T11:32:04;19.30;38.80
17437;DHT22;73152;52.198;5.422;2024-01-16T11:34:52;19.30;37.80
17437;DHT22;73152;52.198;5.422;2024-01-16T11:37:28;19.40;38.30
17437;DHT22;73152;52.198;5.422;2024-01-16T11:40:20;19.40;38.60
17437;DHT22;73152;52.198;5.422;2024-01-16T11:42:52;19.40;37.90
17437;DHT22;73152;52.198;5.422;2024-01-16T11:45:49;19.40;38.70
17437;DHT22;73152;52.198;5.422;2024-01-16T11:48:19;19.40;37.50
17437;DHT22;73152;52.198;5.422;2024-01-16T11:50:48;19.40;38.20
17437;DHT22;73152;52.198;5.422;2024-01-16T11:53:38;19.40;37.50
17437;DHT22;73152;52.198;5.422;2024-01-16T11:59:57;19.40;38.60
17437;DHT22;73152;52.198;5.422;2024-01-16T12:02:42;19.40;37.70
17437;DHT22;73152;52.198;5.422;2024-01-16T12:05:18;19.50;36.60
17437;DHT22;73152;52.198;5.422;2024-01-16T12:07:49;19.40;37.60
17437;DHT22;73152;52.198;5.422;2024-01-16T12:10:23;19.40;37.20
17437;DHT22;73152;52.198;5.422;2024-01-16T12:12:59;19.50;37.70
17437;DHT22;73152;52.198;5.422;2024-01-16T12:15:28;19.50;37.70
17437;DHT22;73152;52.198;5.422;2024-01-16T12:17:58;19.50;37.70
17437;DHT22;73152;52.198;5.422;2024-01-16T12:20:30;19.50;37.30
17437;DHT22;73152;52.198;5.422;2024-01-16T12:23:01;19.50;38.00
17437;DHT22;73152;52.198;5.422;2024-01-16T12:25:36;19.50;36.30
17437;DHT22;73152;52.198;5.422;2024-01-16T12:28:07;19.50;36.50
17437;DHT22;73152;52.198;5.422;2024-01-16T12:30:38;19.50;37.10
17437;DHT22;73152;52.198;5.422;2024-01-16T12:33:07;19.50;36.10
17437;DHT22;73152;52.198;5.422;2024-01-16T12:35:39;19.50;35.80
17437;DHT22;73152;52.198;5.422;2024-01-16T12:38:11;19.40;36.90
17437;DHT22;73152;52.198;5.422;2024-01-16T12:40:46;19.50;36.50
17437;DHT22;73152;52.198;5.422;2024-01-16T12:43:18;19.40;37.10
17437;DHT22;73152;52.198;5.422;2024-01-16T12:45:44;19.50;36.40
17437;DHT22;73152;52.198;5.422;2024-01-16T12:48:14;19.50;37.10
17437;DHT22;73152;52.198;5.422;2024-01-16T12:50:43;19.40;37.90
17437;DHT22;73152;52.198;5.422;2024-01-16T12:53:12;19.50;37.10
17437;DHT22;73152;52.198;5.422;2024-01-16T12:55:45;19.50;36.80
17437;DHT22;73152;52.198;5.422;2024-01-16T12:58:15;19.50;37.70
17437;DHT22;73152;52.198;5.422;2024-01-16T13:00:46;19.50;37.20
17437;DHT22;73152;52.198;5.422;2024-01-16T13:03:16;19.50;37.90
17437;DHT22;73152;52.198;5.422;2024-01-16T13:05:54;19.60;37.60
17437;DHT22;73152;52.198;5.422;2024-01-16T13:08:24;19.60;37.10
17437;DHT22;73152;52.198;5.422;2024-01-16T13:11:06;19.60;37.10
17437;DHT22;73152;52.198;5.422;2024-01-16T13:13:36;19.60;37.10
17437;DHT22;73152;52.198;5.422;2024-01-16T13:16:06;19.60;37.40
17437;DHT22;73152;52.198;5.422;2024-01-16T13:18:35;19.70;37.50
17437;DHT22;73152;52.198;5.422;2024-01-16T13:21:04;19.80;36.30
17437;DHT22;73152;52.198;5.422;2024-01-16T13:23:33;19.80;37.00
17437;DHT22;73152;52.198;5.422;2024-01-16T13:26:05;19.80;37.50
17437;DHT22;73152;52.198;5.422;2024-01-16T13:28:34;19.80;36.60
17437;DHT22;73152;52.198;5.422;2024-01-16T13:31:03;20.00;35.60
17437;DHT22;73152;52.198;5.422;2024-01-16T13:33:32;20.00;36.40
17437;DHT22;73152;52.198;5.422;2024-01-16T13:36:02;20.00;36.10
17437;DHT22;73152;52.198;5.422;2024-01-16T13:38:31;19.90;36.60
17437;DHT22;73152;52.198;5.422;2024-01-16T13:41:00;19.90;36.50
17437;DHT22;73152;52.198;5.422;2024-01-16T13:43:31;19.90;36.70
17437;DHT22;73152;52.198;5.422;2024-01-16T13:46:00;19.80;37.40
17437;DHT22;73152;52.198;5.422;2024-01-16T13:48:30;19.80;37.60
17437;DHT22;73152;52.198;5.422;2024-01-16T13:50:59;19.80;37.30
17437;DHT22;73152;52.198;5.422;2024-01-16T13:53:29;19.90;37.30
17437;DHT22;73152;52.198;5.422;2024-01-16T13:56:00;19.90;37.50
17437;DHT22;73152;52.198;5.422;2024-01-16T13:58:32;20.00;37.60
17437;DHT22;73152;52.198;5.422;2024-01-16T14:01:01;20.00;37.40
17437;DHT22;73152;52.198;5.422;2024-01-16T14:03:30;20.00;37.40
17437;DHT22;73152;52.198;5.422;2024-01-16T14:05:59;20.20;36.10
17437;DHT22;73152;52.198;5.422;2024-01-16T14:08:29;20.20;36.60
17437;DHT22;73152;52.198;5.422;2024-01-16T14:10:58;20.20;36.90
17437;DHT22;73152;52.198;5.422;2024-01-16T14:13:27;20.20;36.70
17437;DHT22;73152;52.198;5.422;2024-01-16T14:15:59;20.20;37.00
17437;DHT22;73152;52.198;5.422;2024-01-16T14:18:28;20.20;37.30
17437;DHT22;73152;52.198;5.422;2024-01-16T14:20:57;20.20;37.50
17437;DHT22;73152;52.198;5.422;2024-01-16T14:23:26;20.20;37.50
17437;DHT22;73152;52.198;5.422;2024-01-16T14:25:55;20.20;37.60
17437;DHT22;73152;52.198;5.422;2024-01-16T14:28:25;20.30;37.70
17437;DHT22;73152;52.198;5.422;2024-01-16T14:30:56;20.30;37.60
17437;DHT22;73152;52.198;5.422;2024-01-16T14:33:25;20.30;37.70
17437;DHT22;73152;52.198;5.422;2024-01-16T14:35:54;20.30;37.70
17437;DHT22;73152;52.198;5.422;2024-01-16T14:38:24;20.30;37.70
17437;DHT22;73152;52.198;5.422;2024-01-16T14:40:53;20.30;37.70
17437;DHT22;73152;52.198;5.422;2024-01-16T14:43:23;20.40;37.60
17437;DHT22;73152;52.198;5.422;2024-01-16T14:45:52;20.40;37.60
17437;DHT22;73152;52.198;5.422;2024-01-16T14:48:26;20.40;37.50
17437;DHT22;73152;52.198;5.422;2024-01-16T14:50:55;20.40;37.70
17437;DHT22;73152;52.198;5.422;2024-01-16T14:53:26;20.50;37.40
17437;DHT22;73152;52.198;5.422;2024-01-16T14:55:55;20.50;37.30
17437;DHT22;73152;52.198;5.422;2024-01-16T14:58:25;20.50;37.20
17437;DHT22;73152;52.198;5.422;2024-01-16T15:00:54;20.50;37.30
17437;DHT22;73152;52.198;5.422;2024-01-16T15:03:26;20.50;37.30
17437;DHT22;73152;52.198;5.422;2024-01-16T15:05:55;20.50;37.30
17437;DHT22;73152;52.198;5.422;2024-01-16T15:08:24;20.50;37.20
17437;DHT22;73152;52.198;5.422;2024-01-16T15:10:56;20.50;37.20
17437;DHT22;73152;52.198;5.422;2024-01-16T15:13:25;20.50;37.20
17437;DHT22;73152;52.198;5.422;2024-01-16T15:15:54;20.50;37.30
17437;DHT22;73152;52.198;5.422;2024-01-16T15:18:26;20.40;37.30
17437;DHT22;73152;52.198;5.422;2024-01-16T15:20:55;20.40;37.30
17437;DHT22;73152;52.198;5.422;2024-01-16T15:23:24;20.30;37.30
17437;DHT22;73152;52.198;5.422;2024-01-16T15:25:53;20.30;37.20
17437;DHT22;73152;52.198;5.422;2024-01-16T15:28:28;20.30;37.20
17437;DHT22;73152;52.198;5.422;2024-01-16T15:30:57;20.20;37.20
17437;DHT22;73152;52.198;5.422;2024-01-16T15:33:34;20.20;37.20
17437;DHT22;73152;52.198;5.422;2024-01-16T15:36:04;20.20;37.10
17437;DHT22;73152;52.198;5.422;2024-01-16T15:38:33;20.20;37.00
17437;DHT22;73152;52.198;5.422;2024-01-16T15:41:03;20.20;37.10
17437;DHT22;73152;52.198;5.422;2024-01-16T15:43:32;20.10;37.00
17437;DHT22;73152;52.198;5.422;2024-01-16T15:46:03;20.10;37.00
17437;DHT22;73152;52.198;5.422;2024-01-16T15:48:37;20.10;37.10
17437;DHT22;73152;52.198;5.422;2024-01-16T15:51:05;20.00;37.00
17437;DHT22;73152;52.198;5.422;2024-01-16T15:53:36;20.00;37.10